Strona główna
METAR-TAF:

METAR-TAF

Lotnisko :

Port lotniczy Londyn-Southend

Londyn-Southend, Anglia

Szerokość geograficzna: 51-34N, Długość geograficzna: 000-42E, wysokość: 15 m

Aktualna obserwacja pogody

Raport powstał 34 minut temu, godzina 22:20 UTC
Wiatr 4 kt od zachód
Temperatura 9°C
Wilgotność 71%
Ciśnienie 1026 hPa
Widzialność 10 km lub więcej
Brak chmur poniżej 1500 m i brak chmur cumulonimbus

METAR: EGMC 062220Z 27004KT CAVOK 09/04 Q1026

czas: 23:54 (22:54 UTC)

Prognoza

Raport powstał 2 godziny i 58 minut temu, godzina 19:56 UTC
Prognoza ważna od 06 godzina 21 UTC do 07 godzina 06 UTC
Wiatr 4 kt od zachodnio-południowy zachód
Widzialność 10 km lub więcej
Brak chmur poniżej 1500 m i brak chmur cumulonimbus
Prawdopodobieństwo 30%
od 07 godzina 03 UTC do 07 godzina 06 UTC
Widzialność: 8000 m

TAF: EGMC 061956Z 0621/0706 24004KT CAVOK PROB30 0703/0706 8000

Obserwacja i prognoza pogody dla ponad 4000 lotnisk (raport METAR i TAF).

Dostępne stacje oznaczono żółtymi i czerwonymi punktami na mapie.

Najedź kursorem aby zobaczyć nazwę stacji.

Kliknij aby zobaczyć obserwacje i prognozy pogody.

Aby zmienić mapę: kliknij na zielony przycisk z czarnym krzyżykiem, aby powiększyć; na zielony przycisk z myślnikiem, aby pomniejszyć; na zielone strzałki, aby przejść do map sąsiednich.


METAR-TAF: